Time;durP1;ratioP1;P1;durP2;ratioP2;P2;SDS_P1;SDS_P2;PMS_P1;PMS_P2;Temp;Humidity;BMP_temperature;BMP_pressure;BME280_temperature;BME280_humidity;BME280_pressure;Samples;Min_cycle;Max_cycle;Signal;HPM_P1;HPM_P2
2022/08/04 00:01:03;;;;;;;8.00;6.60;;;;;;;;;;110205;1250;35056;-35
2022/08/04 00:03:44;;;;;;;7.60;6.90;;;;;;;;;;110199;1250;33508;-35
2022/08/04 00:06:21;;;;;;;8.20;6.70;;;;;;;;;;110229;1251;35663;-35
2022/08/04 00:08:59;;;;;;;7.30;6.60;;;;;;;;;;110205;1250;34543;-35
2022/08/04 00:11:34;;;;;;;8.10;7.20;;;;;;;;;;110255;1251;33799;-34
2022/08/04 00:14:15;;;;;;;8.10;7.30;;;;;;;;;;110243;1251;35089;-34
2022/08/04 00:16:49;;;;;;;7.10;6.40;;;;;;;;;;110236;1250;35262;-34
2022/08/04 00:19:25;;;;;;;8.20;6.90;;;;;;;;;;110216;1257;35964;-35
2022/08/04 00:22:03;;;;;;;8.40;6.50;;;;;;;;;;110209;1257;33688;-34
2022/08/04 00:24:37;;;;;;;7.70;7.00;;;;;;;;;;110201;1257;33570;-35
2022/08/04 00:27:10;;;;;;;7.60;6.80;;;;;;;;;;110221;1251;36009;-35
2022/08/04 00:29:42;;;;;;;7.40;6.60;;;;;;;;;;110232;1250;33052;-35
2022/08/04 00:32:14;;;;;;;7.80;7.00;;;;;;;;;;110233;1257;35547;-35
2022/08/04 00:34:47;;;;;;;8.30;7.40;;;;;;;;;;110205;1258;35375;-35
2022/08/04 00:37:18;;;;;;;;;;;;;;;;;;110229;1251;35069;-35
2022/08/04 00:39:50;;;;;;;8.30;6.80;;;;;;;;;;110204;1257;36118;-34
2022/08/04 00:42:37;;;;;;;7.90;7.10;;;;;;;;;;110237;1257;35171;-34
2022/08/04 00:45:41;;;;;;;7.20;6.50;;;;;;;;;;110217;1257;35769;-35
2022/08/04 00:48:24;;;;;;;7.60;6.80;;;;;;;;;;110178;1257;35151;-35
2022/08/04 00:51:08;;;;;;;7.80;7.00;;;;;;;;;;110227;1250;33435;-35
2022/08/04 00:53:59;;;;;;;7.40;6.70;;;;;;;;;;110220;1258;33338;-35
2022/08/04 00:56:49;;;;;;;6.70;6.00;;;;;;;;;;110193;1253;34506;-35
2022/08/04 00:59:36;;;;;;;7.50;6.70;;;;;;;;;;110192;1257;34209;-35
2022/08/04 01:02:15;;;;;;;7.50;6.40;;;;;;;;;;110175;1257;34420;-35
2022/08/04 01:05:05;;;;;;;7.60;6.90;;;;;;;;;;110188;1250;35793;-35
2022/08/04 01:08:01;;;;;;;7.70;7.00;;;;;;;;;;110223;1257;34729;-32
2022/08/04 01:10:57;;;;;;;6.70;6.10;;;;;;;;;;110219;1257;34403;-33
2022/08/04 01:13:56;;;;;;;6.80;6.00;;;;;;;;;;110181;1257;35545;-33
2022/08/04 01:16:32;;;;;;;7.20;6.30;;;;;;;;;;110213;1257;35303;-33
2022/08/04 01:19:12;;;;;;;7.40;6.40;;;;;;;;;;110207;1257;33297;-33
2022/08/04 01:22:18;;;;;;;6.80;6.10;;;;;;;;;;110208;1257;33355;-33
2022/08/04 01:25:18;;;;;;;8.50;6.20;;;;;;;;;;110245;1257;34798;-33
2022/08/04 01:28:12;;;;;;;7.00;6.30;;;;;;;;;;110184;1251;34063;-33
2022/08/04 01:30:48;;;;;;;7.00;6.30;;;;;;;;;;110198;1257;34361;-33
2022/08/04 01:33:22;;;;;;;6.90;6.00;;;;;;;;;;110190;1251;34957;-33
2022/08/04 01:35:57;;;;;;;7.00;6.20;;;;;;;;;;110237;1257;33575;-33
2022/08/04 01:38:35;;;;;;;7.30;6.20;;;;;;;;;;110213;1258;35026;-33
2022/08/04 01:41:09;;;;;;;6.90;6.20;;;;;;;;;;110213;1257;34465;-33
2022/08/04 01:43:44;;;;;;;6.50;5.80;;;;;;;;;;110191;1257;33765;-33
2022/08/04 01:46:19;;;;;;;6.70;6.00;;;;;;;;;;110222;1250;35348;-33
2022/08/04 01:48:54;;;;;;;7.00;6.30;;;;;;;;;;110225;1257;33284;-33
2022/08/04 01:51:29;;;;;;;6.20;5.60;;;;;;;;;;110211;1251;35401;-33
2022/08/04 01:54:01;;;;;;;7.90;5.60;;;;;;;;;;110204;1257;35065;-33
2022/08/04 01:56:34;;;;;;;7.30;5.90;;;;;;;;;;110195;1258;35653;-33
2022/08/04 01:59:07;;;;;;;6.70;6.00;;;;;;;;;;110187;1249;33518;-33
2022/08/04 02:01:40;;;;;;;6.50;5.70;;;;;;;;;;110212;1257;35331;-33
2022/08/04 02:04:15;;;;;;;7.00;5.50;;;;;;;;;;110209;1251;35145;-33
2022/08/04 02:07:02;;;;;;;6.20;5.60;;;;;;;;;;110209;1257;35044;-33
2022/08/04 02:09:42;;;;;;;6.40;5.70;;;;;;;;;;110208;1251;33556;-33
2022/08/04 02:12:24;;;;;;;6.10;5.50;;;;;;;;;;110228;1257;35346;-33
2022/08/04 02:15:03;;;;;;;7.40;5.60;;;;;;;;;;110191;1257;34959;-33
2022/08/04 02:17:50;;;;;;;6.20;5.60;;;;;;;;;;110195;1256;36000;-33
2022/08/04 02:20:28;;;;;;;6.10;5.40;;;;;;;;;;110203;1257;35490;-32
2022/08/04 02:23:03;;;;;;;6.30;5.20;;;;;;;;;;110206;1251;34214;-32
2022/08/04 02:25:39;;;;;;;5.90;5.20;;;;;;;;;;110209;1257;33496;-33
2022/08/04 02:28:33;;;;;;;6.30;5.10;;;;;;;;;;110200;1250;33717;-33
2022/08/04 02:31:14;;;;;;;;;;;;;;;;;;110245;1257;34910;-33
2022/08/04 02:33:49;;;;;;;5.80;5.20;;;;;;;;;;110221;1250;34278;-32
2022/08/04 02:36:31;;;;;;;6.10;5.40;;;;;;;;;;110189;1257;33676;-33
2022/08/04 02:39:05;;;;;;;6.60;6.00;;;;;;;;;;110206;1256;32686;-33
2022/08/04 02:41:39;;;;;;;5.50;4.90;;;;;;;;;;110190;1257;33798;-33
2022/08/04 02:44:12;;;;;;;5.60;5.00;;;;;;;;;;110228;1251;34036;-33
2022/08/04 02:46:45;;;;;;;6.80;5.20;;;;;;;;;;110189;1257;35410;-34
2022/08/04 02:49:21;;;;;;;5.80;4.80;;;;;;;;;;110187;1257;35427;-33
2022/08/04 02:51:56;;;;;;;5.70;5.10;;;;;;;;;;110192;1249;35520;-33
2022/08/04 02:54:35;;;;;;;6.00;4.80;;;;;;;;;;110229;1257;35037;-33
2022/08/04 02:57:13;;;;;;;5.90;4.80;;;;;;;;;;110194;1251;33609;-33
2022/08/04 03:00:05;;;;;;;5.60;4.60;;;;;;;;;;110185;1251;35171;-33
2022/08/04 03:02:51;;;;;;;5.40;4.80;;;;;;;;;;110169;1257;34950;-33
2022/08/04 03:05:28;;;;;;;5.60;4.90;;;;;;;;;;110188;1256;34979;-33
2022/08/04 03:08:50;;;;;;;6.10;5.10;;;;;;;;;;110187;1257;35806;-33
2022/08/04 03:11:57;;;;;;;5.60;4.60;;;;;;;;;;110061;1257;35238;-33
2022/08/04 03:15:03;;;;;;;5.10;4.60;;;;;;;;;;110189;1257;33409;-33
2022/08/04 03:18:37;;;;;;;5.70;4.90;;;;;;;;;;110156;1257;35481;-33
2022/08/04 03:21:48;;;;;;;6.00;4.40;;;;;;;;;;109661;1257;34468;-33
2022/08/04 03:24:44;;;;;;;5.60;4.50;;;;;;;;;;109749;1258;35713;-33
2022/08/04 03:27:59;;;;;;;6.70;4.90;;;;;;;;;;110170;1257;34221;-32
2022/08/04 03:30:40;;;;;;;5.80;4.60;;;;;;;;;;109910;1258;33724;-33
2022/08/04 03:33:42;;;;;;;4.90;4.40;;;;;;;;;;110202;1251;33704;-33
2022/08/04 03:37:06;;;;;;;6.00;4.90;;;;;;;;;;109945;1257;33399;-33
2022/08/04 03:40:25;;;;;;;5.70;4.70;;;;;;;;;;110177;1257;35403;-33
2022/08/04 03:43:35;;;;;;;5.90;4.70;;;;;;;;;;110181;1257;35104;-33
2022/08/04 03:47:00;;;;;;;6.10;5.00;;;;;;;;;;110167;1257;33345;-33
2022/08/04 03:49:56;;;;;;;6.10;4.80;;;;;;;;;;110172;1257;35357;-33
2022/08/04 03:56:10;;;;;;;6.20;4.70;;;;;;;;;;110185;1257;33616;-33
2022/08/04 03:59:36;;;;;;;4.90;4.30;;;;;;;;;;110162;1257;35519;-33
2022/08/04 04:02:52;;;;;;;5.60;4.40;;;;;;;;;;110178;1257;35457;-33
2022/08/04 04:06:06;;;;;;;5.20;4.60;;;;;;;;;;110196;1257;34356;-33
2022/08/04 04:09:21;;;;;;;6.00;4.90;;;;;;;;;;110184;1257;35021;-33
2022/08/04 04:12:42;;;;;;;6.80;4.80;;;;;;;;;;110204;1257;35552;-33
2022/08/04 04:15:39;;;;;;;5.80;5.10;;;;;;;;;;110198;1251;35833;-33
2022/08/04 04:18:38;;;;;;;5.90;5.30;;;;;;;;;;110210;1257;34671;-33
2022/08/04 04:21:39;;;;;;;5.70;4.70;;;;;;;;;;110201;1257;34300;-33
2022/08/04 04:24:54;;;;;;;6.10;5.00;;;;;;;;;;110192;1251;35054;-33
2022/08/04 04:27:40;;;;;;;5.70;5.10;;;;;;;;;;109654;1257;33335;-35
2022/08/04 04:30:19;;;;;;;7.30;4.90;;;;;;;;;;110191;1257;34406;-34
2022/08/04 04:33:25;;;;;;;7.30;4.60;;;;;;;;;;110205;1251;33626;-34
2022/08/04 04:36:13;;;;;;;6.30;5.00;;;;;;;;;;110172;1251;33820;-34
2022/08/04 04:39:04;;;;;;;5.30;4.80;;;;;;;;;;110204;1251;34471;-34
2022/08/04 04:41:59;;;;;;;5.80;4.80;;;;;;;;;;110183;1257;33996;-34
2022/08/04 04:44:53;;;;;;;5.80;4.60;;;;;;;;;;110184;1251;34816;-34
2022/08/04 04:47:33;;;;;;;6.40;5.00;;;;;;;;;;110170;1250;34936;-34
2022/08/04 04:50:18;;;;;;;6.40;4.70;;;;;;;;;;110171;1257;35644;-34
2022/08/04 04:52:56;;;;;;;6.20;4.90;;;;;;;;;;110199;1257;35661;-35
2022/08/04 04:55:33;;;;;;;5.50;4.60;;;;;;;;;;110168;1251;35073;-34
2022/08/04 04:58:06;;;;;;;5.70;4.40;;;;;;;;;;110216;1251;34400;-34
2022/08/04 05:00:54;;;;;;;6.00;4.60;;;;;;;;;;110170;1257;34905;-34
2022/08/04 05:03:42;;;;;;;6.10;4.80;;;;;;;;;;110184;1257;34967;-32
2022/08/04 05:06:43;;;;;;;5.90;4.60;;;;;;;;;;110217;1251;33707;-34
2022/08/04 05:09:31;;;;;;;6.60;5.00;;;;;;;;;;110206;1249;34522;-35
2022/08/04 05:12:31;;;;;;;6.90;4.90;;;;;;;;;;110215;1257;34053;-33
2022/08/04 05:15:06;;;;;;;5.70;4.30;;;;;;;;;;110188;1257;35019;-35
2022/08/04 05:17:41;;;;;;;6.90;5.00;;;;;;;;;;110185;1257;35072;-33
2022/08/04 05:20:17;;;;;;;7.10;5.70;;;;;;;;;;110212;1251;33495;-34
2022/08/04 05:22:56;;;;;;;5.90;4.80;;;;;;;;;;110181;1251;34294;-34
2022/08/04 05:25:35;;;;;;;6.70;5.10;;;;;;;;;;110212;1250;35428;-34
2022/08/04 05:28:12;;;;;;;6.30;4.60;;;;;;;;;;110161;1257;35050;-35
2022/08/04 05:30:49;;;;;;;5.70;4.40;;;;;;;;;;110196;1257;35698;-34
2022/08/04 05:33:26;;;;;;;6.00;4.90;;;;;;;;;;110193;1257;34967;-33
2022/08/04 05:36:01;;;;;;;6.30;4.50;;;;;;;;;;110220;1250;35069;-34
2022/08/04 05:38:37;;;;;;;6.10;4.70;;;;;;;;;;110233;1251;35296;-34
2022/08/04 05:41:10;;;;;;;6.20;4.60;;;;;;;;;;110185;1257;34149;-34
2022/08/04 05:43:44;;;;;;;5.20;4.70;;;;;;;;;;110173;1257;34704;-34
2022/08/04 05:46:17;;;;;;;5.30;4.70;;;;;;;;;;110188;1257;34153;-33
2022/08/04 05:48:50;;;;;;;6.60;4.70;;;;;;;;;;110194;1257;34480;-34
2022/08/04 05:51:22;;;;;;;6.20;4.70;;;;;;;;;;110197;1251;35604;-35
2022/08/04 05:53:55;;;;;;;5.50;4.40;;;;;;;;;;110182;1257;33815;-34
2022/08/04 05:56:26;;;;;;;;;;;;;;;;;;110199;1257;35164;-35
2022/08/04 05:58:58;;;;;;;7.10;5.20;;;;;;;;;;110180;1257;34377;-34
2022/08/04 06:01:31;;;;;;;5.80;4.60;;;;;;;;;;110170;1257;35417;-34
2022/08/04 06:04:04;;;;;;;7.30;5.00;;;;;;;;;;110176;1257;35890;-33
2022/08/04 06:06:37;;;;;;;7.60;4.50;;;;;;;;;;110180;1257;35005;-33
2022/08/04 06:09:10;;;;;;;7.00;4.90;;;;;;;;;;110184;1257;34414;-34
2022/08/04 06:11:44;;;;;;;7.30;4.90;;;;;;;;;;110183;1257;32703;-35
2022/08/04 06:14:19;;;;;;;5.60;4.50;;;;;;;;;;110191;1251;34287;-35
2022/08/04 06:16:51;;;;;;;6.70;4.50;;;;;;;;;;110141;1251;35461;-35
2022/08/04 06:19:26;;;;;;;6.70;4.70;;;;;;;;;;110164;1257;34977;-34
2022/08/04 06:22:04;;;;;;;8.90;4.80;;;;;;;;;;110168;1257;33491;-34
2022/08/04 06:24:37;;;;;;;8.10;5.30;;;;;;;;;;110198;1251;33726;-38
2022/08/04 06:27:13;;;;;;;6.70;4.70;;;;;;;;;;110191;1250;33797;-35
2022/08/04 06:29:46;;;;;;;7.00;5.20;;;;;;;;;;110166;1257;34477;-37
2022/08/04 06:32:26;;;;;;;8.40;5.50;;;;;;;;;;110179;1257;34645;-38
2022/08/04 06:35:01;;;;;;;8.10;5.60;;;;;;;;;;110176;1257;33514;-38
2022/08/04 06:37:34;;;;;;;7.00;5.30;;;;;;;;;;110168;1250;35901;-37
2022/08/04 06:40:10;;;;;;;8.60;5.10;;;;;;;;;;110224;1251;34308;-38
2022/08/04 06:42:42;;;;;;;8.80;5.00;;;;;;;;;;110224;1250;33523;-38
2022/08/04 06:45:16;;;;;;;7.00;5.50;;;;;;;;;;110165;1257;34616;-36
2022/08/04 06:47:49;;;;;;;8.20;5.20;;;;;;;;;;110182;1251;33344;-36
2022/08/04 06:50:21;;;;;;;6.50;5.40;;;;;;;;;;110176;1251;35046;-36
2022/08/04 06:52:53;;;;;;;6.80;5.10;;;;;;;;;;110173;1251;35872;-38
2022/08/04 06:55:26;;;;;;;6.30;5.00;;;;;;;;;;110102;1251;35238;-35
2022/08/04 06:57:59;;;;;;;6.90;5.30;;;;;;;;;;110027;1251;35771;-35
2022/08/04 07:00:32;;;;;;;8.90;5.20;;;;;;;;;;109985;1257;35791;-35
2022/08/04 07:03:03;;;;;;;;;;;;;;;;;;110070;1251;36204;-35
2022/08/04 07:05:36;;;;;;;7.30;5.00;;;;;;;;;;110032;1251;34656;-35
2022/08/04 07:08:09;;;;;;;7.20;5.80;;;;;;;;;;110032;1251;35001;-35
2022/08/04 07:10:42;;;;;;;7.20;4.90;;;;;;;;;;110070;1257;37142;-35
2022/08/04 07:13:14;;;;;;;7.60;5.40;;;;;;;;;;110105;1257;35774;-35
2022/08/04 07:15:47;;;;;;;7.10;5.40;;;;;;;;;;110032;1257;34541;-35
2022/08/04 07:18:18;;;;;;;;;;;;;;;;;;110088;1249;35032;-35
2022/08/04 07:20:50;;;;;;;6.30;4.70;;;;;;;;;;110029;1257;33976;-35
2022/08/04 07:23:27;;;;;;;6.00;5.00;;;;;;;;;;110096;1251;33489;-35
2022/08/04 07:26:02;;;;;;;6.00;5.00;;;;;;;;;;111138;1250;33367;-35
2022/08/04 07:28:37;;;;;;;6.40;5.20;;;;;;;;;;110173;1250;34346;-35
2022/08/04 07:31:17;;;;;;;6.60;5.10;;;;;;;;;;110168;1251;34866;-35
2022/08/04 07:33:49;;;;;;;7.20;5.30;;;;;;;;;;110163;1250;34198;-35
2022/08/04 07:36:21;;;;;;;6.40;5.20;;;;;;;;;;110183;1251;34583;-35
2022/08/04 07:38:54;;;;;;;6.00;5.30;;;;;;;;;;110182;1251;33509;-35
2022/08/04 07:41:27;;;;;;;7.30;5.10;;;;;;;;;;110180;1251;35295;-36
2022/08/04 07:44:01;;;;;;;7.00;5.40;;;;;;;;;;110176;1251;35117;-36
2022/08/04 07:46:34;;;;;;;7.10;5.30;;;;;;;;;;110177;1257;33448;-36
2022/08/04 07:49:09;;;;;;;8.50;5.90;;;;;;;;;;110178;1250;35200;-36
2022/08/04 07:51:43;;;;;;;6.50;5.70;;;;;;;;;;110192;1257;34441;-36
2022/08/04 07:54:17;;;;;;;6.20;5.10;;;;;;;;;;110191;1251;35123;-36
2022/08/04 07:56:52;;;;;;;6.40;5.30;;;;;;;;;;110192;1257;33793;-35
2022/08/04 07:59:25;;;;;;;7.00;4.80;;;;;;;;;;110187;1251;35168;-36
2022/08/04 08:02:01;;;;;;;7.20;5.60;;;;;;;;;;110173;1257;35251;-36
2022/08/04 08:04:34;;;;;;;7.40;5.70;;;;;;;;;;110199;1257;35139;-36
2022/08/04 08:07:07;;;;;;;8.00;5.70;;;;;;;;;;110167;1250;34302;-36
2022/08/04 08:09:39;;;;;;;6.30;5.20;;;;;;;;;;110194;1251;35613;-36
2022/08/04 08:12:13;;;;;;;5.80;4.80;;;;;;;;;;110180;1251;34162;-36
2022/08/04 08:14:46;;;;;;;7.20;4.80;;;;;;;;;;110130;1257;34571;-35
2022/08/04 08:17:17;;;;;;;;;;;;;;;;;;110184;1250;35709;-37
2022/08/04 08:19:52;;;;;;;6.00;4.50;;;;;;;;;;110202;1251;34526;-38
2022/08/04 08:22:24;;;;;;;5.90;4.50;;;;;;;;;;110193;1257;34023;-39
2022/08/04 08:24:56;;;;;;;6.10;4.40;;;;;;;;;;110179;1251;35751;-37
2022/08/04 08:27:28;;;;;;;5.80;4.30;;;;;;;;;;110175;1259;35072;-39
2022/08/04 08:30:00;;;;;;;6.10;4.30;;;;;;;;;;110159;1258;35536;-40
2022/08/04 08:32:33;;;;;;;5.70;4.30;;;;;;;;;;110182;1257;35392;-40
2022/08/04 08:35:06;;;;;;;7.00;4.20;;;;;;;;;;110174;1257;34969;-39
2022/08/04 08:37:41;;;;;;;5.70;3.90;;;;;;;;;;110259;1256;36254;-37
2022/08/04 08:40:33;;;;;;;5.30;4.40;;;;;;;;;;110211;1257;33399;-39
2022/08/04 08:43:39;;;;;;;5.90;4.10;;;;;;;;;;110281;1257;33310;-38
2022/08/04 08:46:52;;;;;;;4.90;3.90;;;;;;;;;;110172;1258;36171;-36
2022/08/04 08:49:59;;;;;;;7.30;4.30;;;;;;;;;;110172;1257;35335;-37
2022/08/04 08:52:47;;;;;;;5.00;4.00;;;;;;;;;;110228;1250;35180;-39
2022/08/04 08:55:45;;;;;;;4.80;4.10;;;;;;;;;;110280;1257;35181;-38
2022/08/04 08:58:38;;;;;;;5.20;3.70;;;;;;;;;;110289;1254;33284;-38
2022/08/04 09:01:30;;;;;;;5.10;3.80;;;;;;;;;;110205;1250;34995;-36
2022/08/04 09:04:24;;;;;;;5.30;3.60;;;;;;;;;;110199;1257;35980;-39
2022/08/04 09:07:11;;;;;;;5.00;3.70;;;;;;;;;;110195;1257;35366;-40
2022/08/04 09:09:56;;;;;;;4.70;3.70;;;;;;;;;;110184;1257;35184;-37
2022/08/04 09:12:36;;;;;;;5.10;3.90;;;;;;;;;;110220;1257;35375;-44
2022/08/04 09:15:15;;;;;;;4.50;3.40;;;;;;;;;;110165;1250;35771;-42
2022/08/04 09:17:52;;;;;;;5.10;4.00;;;;;;;;;;110194;1250;34342;-36
2022/08/04 09:20:38;;;;;;;5.20;4.00;;;;;;;;;;110078;1250;33548;-36
2022/08/04 09:23:20;;;;;;;5.40;3.40;;;;;;;;;;109999;1257;33332;-36
2022/08/04 09:26:01;;;;;;;6.40;3.60;;;;;;;;;;110103;1257;35143;-36
2022/08/04 09:28:47;;;;;;;5.20;3.40;;;;;;;;;;110024;1250;35387;-36
2022/08/04 09:31:23;;;;;;;4.50;3.50;;;;;;;;;;110034;1257;33331;-36
2022/08/04 09:34:17;;;;;;;5.20;3.40;;;;;;;;;;110023;1257;35338;-35
2022/08/04 09:36:57;;;;;;;4.60;3.40;;;;;;;;;;110162;1257;35103;-34
2022/08/04 09:39:50;;;;;;;6.10;3.70;;;;;;;;;;110132;1251;35091;-35
2022/08/04 09:42:33;;;;;;;4.40;3.70;;;;;;;;;;110148;1250;35844;-36
2022/08/04 09:45:12;;;;;;;5.90;3.80;;;;;;;;;;110306;1257;33436;-34
2022/08/04 09:47:51;;;;;;;5.40;3.60;;;;;;;;;;110152;1257;34894;-35
2022/08/04 09:50:34;;;;;;;5.40;3.80;;;;;;;;;;110207;1257;35802;-36
2022/08/04 09:53:35;;;;;;;5.40;3.90;;;;;;;;;;110198;1257;34007;-34
2022/08/04 09:56:13;;;;;;;5.40;3.50;;;;;;;;;;110209;1250;35894;-34
2022/08/04 09:58:55;;;;;;;5.60;4.10;;;;;;;;;;110205;1257;34931;-34
2022/08/04 10:01:30;;;;;;;7.00;3.50;;;;;;;;;;110207;1250;35004;-34
2022/08/04 10:04:06;;;;;;;5.50;3.60;;;;;;;;;;110203;1257;34891;-34
2022/08/04 10:07:03;;;;;;;7.30;3.90;;;;;;;;;;110215;1257;34261;-34
2022/08/04 10:09:50;;;;;;;7.10;4.00;;;;;;;;;;110203;1257;35394;-34
2022/08/04 10:12:39;;;;;;;5.40;3.80;;;;;;;;;;110205;1257;33546;-35
2022/08/04 10:15:17;;;;;;;6.10;3.90;;;;;;;;;;110198;1257;35761;-35
2022/08/04 10:18:08;;;;;;;6.50;4.10;;;;;;;;;;110147;1257;35157;-34
2022/08/04 10:20:55;;;;;;;5.10;4.10;;;;;;;;;;110184;1257;34274;-36
2022/08/04 10:23:43;;;;;;;4.80;3.70;;;;;;;;;;110189;1250;34934;-34
2022/08/04 10:26:27;;;;;;;5.70;3.50;;;;;;;;;;110208;1257;35116;-34
2022/08/04 10:29:04;;;;;;;5.10;3.70;;;;;;;;;;110244;1257;35074;-34
2022/08/04 10:31:46;;;;;;;6.20;4.20;;;;;;;;;;110211;1257;34295;-34
2022/08/04 10:34:22;;;;;;;5.10;4.50;;;;;;;;;;110190;1257;34437;-34
2022/08/04 10:37:04;;;;;;;4.90;3.80;;;;;;;;;;110203;1251;34491;-36
2022/08/04 10:40:35;;;;;;;6.00;4.10;;;;;;;;;;110198;1257;36000;-34
2022/08/04 10:42:45;;;;;;;5.00;4.00;;;;;;;;;;110225;1251;35269;-37
2022/08/04 10:45:22;;;;;;;5.10;4.40;;;;;;;;;;110208;1257;35534;-34
2022/08/04 10:48:02;;;;;;;4.60;3.80;;;;;;;;;;110194;1250;35286;-35
2022/08/04 10:50:36;;;;;;;4.80;4.20;;;;;;;;;;110217;1250;35838;-35
2022/08/04 10:53:12;;;;;;;5.70;4.10;;;;;;;;;;110224;1249;33287;-35
2022/08/04 10:55:49;;;;;;;5.80;4.10;;;;;;;;;;110172;1250;33778;-35
2022/08/04 10:58:29;;;;;;;5.10;4.30;;;;;;;;;;110201;1257;35781;-35
2022/08/04 11:01:02;;;;;;;5.10;4.10;;;;;;;;;;110206;1257;35037;-35
2022/08/04 11:03:45;;;;;;;5.00;4.00;;;;;;;;;;110150;1250;35033;-35
2022/08/04 11:06:19;;;;;;;5.30;4.40;;;;;;;;;;110191;1257;33697;-35
2022/08/04 11:08:55;;;;;;;4.70;3.90;;;;;;;;;;110184;1257;35358;-35
2022/08/04 11:11:33;;;;;;;4.80;4.10;;;;;;;;;;110224;1257;35303;-35
2022/08/04 11:14:10;;;;;;;5.10;4.00;;;;;;;;;;110232;1257;35737;-35
2022/08/04 11:16:48;;;;;;;4.80;3.80;;;;;;;;;;110211;1251;35485;-35
2022/08/04 11:19:34;;;;;;;5.60;4.10;;;;;;;;;;110112;1257;35310;-39
2022/08/04 11:22:11;;;;;;;5.30;4.10;;;;;;;;;;110213;1257;33293;-43
2022/08/04 11:24:52;;;;;;;5.40;4.40;;;;;;;;;;110179;1257;34872;-40
2022/08/04 11:27:30;;;;;;;5.10;4.00;;;;;;;;;;110140;1257;35756;-38
2022/08/04 11:30:06;;;;;;;4.60;4.10;;;;;;;;;;110206;1250;35034;-38
2022/08/04 11:32:44;;;;;;;4.90;4.20;;;;;;;;;;110224;1257;35420;-37
2022/08/04 11:35:22;;;;;;;7.10;4.70;;;;;;;;;;109866;1250;408416;-38
2022/08/04 11:38:02;;;;;;;5.10;4.40;;;;;;;;;;110195;1257;35503;-39
2022/08/04 11:40:40;;;;;;;5.90;4.60;;;;;;;;;;110141;1257;35017;-40
2022/08/04 11:43:18;;;;;;;6.40;4.50;;;;;;;;;;110124;1257;35515;-39
2022/08/04 11:45:54;;;;;;;5.20;4.10;;;;;;;;;;110160;1249;35171;-39
2022/08/04 11:48:31;;;;;;;4.90;4.00;;;;;;;;;;110164;1250;35357;-46
2022/08/04 11:51:04;;;;;;;5.30;4.80;;;;;;;;;;110171;1257;35964;-44
2022/08/04 11:53:37;;;;;;;;;;;;;;;;;;110168;1250;35501;-42
2022/08/04 11:56:13;;;;;;;4.50;4.00;;;;;;;;;;110185;1255;33878;-46
2022/08/04 11:58:46;;;;;;;4.60;4.10;;;;;;;;;;110192;1257;35633;-43
2022/08/04 12:01:26;;;;;;;5.50;4.50;;;;;;;;;;110221;1250;34942;-43
2022/08/04 12:04:06;;;;;;;5.20;4.10;;;;;;;;;;110236;1257;34530;-40
2022/08/04 12:06:48;;;;;;;5.10;3.90;;;;;;;;;;110196;1257;35057;-40
2022/08/04 12:09:43;;;;;;;4.30;3.70;;;;;;;;;;110231;1257;34556;-41
2022/08/04 12:12:21;;;;;;;5.50;4.20;;;;;;;;;;110195;1251;35158;-37
2022/08/04 12:15:33;;;;;;;5.10;4.20;;;;;;;;;;110492;1242;33495;31
2022/08/04 12:18:14;;;;;;;5.00;4.30;;;;;;;;;;109760;1261;35098;-36
2022/08/04 12:20:55;;;;;;;4.70;4.20;;;;;;;;;;109993;1260;35002;-34
2022/08/04 12:23:36;;;;;;;5.20;4.00;;;;;;;;;;110005;1260;35150;-33
2022/08/04 12:26:10;;;;;;;4.60;3.70;;;;;;;;;;109993;1260;34935;-33
2022/08/04 12:28:45;;;;;;;5.00;4.20;;;;;;;;;;109927;1253;35393;-33
2022/08/04 12:31:23;;;;;;;4.60;3.70;;;;;;;;;;110020;1260;33288;-37
2022/08/04 12:34:01;;;;;;;4.50;4.00;;;;;;;;;;110018;1260;34960;-42
2022/08/04 12:36:39;;;;;;;5.30;4.20;;;;;;;;;;110002;1260;33372;-36
2022/08/04 12:39:17;;;;;;;4.70;3.90;;;;;;;;;;110006;1260;35061;-35
2022/08/04 12:41:56;;;;;;;5.00;4.10;;;;;;;;;;110063;1257;35789;-35
2022/08/04 12:44:33;;;;;;;4.70;4.20;;;;;;;;;;110013;1260;34211;-35
2022/08/04 12:47:07;;;;;;;4.60;3.90;;;;;;;;;;109986;1260;35875;-37
2022/08/04 12:49:42;;;;;;;4.90;4.00;;;;;;;;;;110023;1260;35165;-35
2022/08/04 12:52:16;;;;;;;4.60;4.10;;;;;;;;;;110043;1254;34256;-37
2022/08/04 12:54:52;;;;;;;5.10;3.70;;;;;;;;;;110030;1260;35820;-39
2022/08/04 12:57:25;;;;;;;5.40;4.10;;;;;;;;;;109985;1255;35566;-38
2022/08/04 12:59:57;;;;;;;5.20;4.10;;;;;;;;;;110014;1260;35631;-34
2022/08/04 13:02:33;;;;;;;4.90;3.90;;;;;;;;;;110035;1254;33459;-37
2022/08/04 13:05:08;;;;;;;4.40;4.00;;;;;;;;;;110020;1259;33728;-36
2022/08/04 13:07:43;;;;;;;5.70;4.20;;;;;;;;;;109985;1254;33931;-36
2022/08/04 13:10:18;;;;;;;5.20;4.10;;;;;;;;;;110014;1260;35536;-37
2022/08/04 13:12:57;;;;;;;4.90;4.40;;;;;;;;;;110023;1260;35440;-36
2022/08/04 13:15:32;;;;;;;4.60;4.00;;;;;;;;;;109955;1261;35818;-36
2022/08/04 13:18:08;;;;;;;4.90;4.20;;;;;;;;;;109952;1253;34549;-36
2022/08/04 13:20:41;;;;;;;5.50;4.50;;;;;;;;;;110044;1260;36217;-38
2022/08/04 13:23:17;;;;;;;6.20;4.20;;;;;;;;;;109978;1255;35027;-37
2022/08/04 13:25:51;;;;;;;5.00;4.00;;;;;;;;;;110023;1260;35038;-37
2022/08/04 13:28:26;;;;;;;4.70;4.20;;;;;;;;;;110013;1259;34391;-36
2022/08/04 13:31:02;;;;;;;5.50;4.00;;;;;;;;;;109952;1253;33695;-36
2022/08/04 13:33:36;;;;;;;4.90;4.20;;;;;;;;;;109971;1253;34922;-35
2022/08/04 13:36:10;;;;;;;5.40;4.00;;;;;;;;;;109970;1260;33293;-33
2022/08/04 13:38:50;;;;;;;5.70;4.20;;;;;;;;;;109999;1260;34517;-34
2022/08/04 13:41:22;;;;;;;5.30;3.90;;;;;;;;;;109980;1254;36804;-37
2022/08/04 13:43:59;;;;;;;4.70;3.80;;;;;;;;;;110005;1260;35037;-35
2022/08/04 13:46:33;;;;;;;5.00;3.90;;;;;;;;;;110010;1253;33752;-36
2022/08/04 13:49:10;;;;;;;5.00;4.20;;;;;;;;;;109980;1253;33747;-36
2022/08/04 13:51:43;;;;;;;5.20;4.10;;;;;;;;;;109982;1260;35278;-36
2022/08/04 13:54:15;;;;;;;5.40;4.00;;;;;;;;;;110008;1254;35304;-35
2022/08/04 13:56:53;;;;;;;4.90;3.70;;;;;;;;;;110003;1260;35928;-36
2022/08/04 13:59:28;;;;;;;5.70;4.20;;;;;;;;;;109946;1254;35336;-36
2022/08/04 14:02:04;;;;;;;4.50;3.70;;;;;;;;;;109980;1260;35892;-35
2022/08/04 14:04:42;;;;;;;5.40;4.40;;;;;;;;;;110010;1260;35075;-33
2022/08/04 14:07:17;;;;;;;5.50;4.20;;;;;;;;;;109953;1254;35708;-35
2022/08/04 14:09:49;;;;;;;5.70;4.00;;;;;;;;;;110052;1260;34945;-36
2022/08/04 14:12:22;;;;;;;4.80;3.70;;;;;;;;;;110021;1253;33299;-36
2022/08/04 14:14:55;;;;;;;5.00;3.60;;;;;;;;;;110000;1260;34398;-35
2022/08/04 14:17:28;;;;;;;5.30;4.00;;;;;;;;;;109951;1260;35095;-36
2022/08/04 14:20:02;;;;;;;4.70;4.10;;;;;;;;;;109948;1257;36610;-35
2022/08/04 14:22:38;;;;;;;5.20;3.70;;;;;;;;;;110020;1253;35716;-35
2022/08/04 14:25:14;;;;;;;5.40;4.20;;;;;;;;;;109986;1253;33671;-38
2022/08/04 14:27:50;;;;;;;4.40;3.90;;;;;;;;;;109962;1255;33768;-38
2022/08/04 14:30:28;;;;;;;4.60;3.80;;;;;;;;;;109970;1260;35111;-37
2022/08/04 14:33:06;;;;;;;4.80;4.10;;;;;;;;;;109996;1252;35396;-41
2022/08/04 14:35:43;;;;;;;4.90;3.80;;;;;;;;;;109972;1254;35640;-37
2022/08/04 14:38:18;;;;;;;5.00;4.00;;;;;;;;;;109989;1254;33334;-44
2022/08/04 14:40:50;;;;;;;4.60;3.50;;;;;;;;;;109944;1260;34982;-36
2022/08/04 14:43:22;;;;;;;4.20;3.70;;;;;;;;;;109959;1260;33470;-35
2022/08/04 14:46:05;;;;;;;4.90;4.00;;;;;;;;;;109973;1253;35008;-37
2022/08/04 14:48:38;;;;;;;5.10;3.60;;;;;;;;;;109950;1260;33550;-37
2022/08/04 14:51:17;;;;;;;4.30;3.60;;;;;;;;;;109925;1252;33797;-37
2022/08/04 14:53:51;;;;;;;4.60;3.80;;;;;;;;;;110008;1260;36060;-36
2022/08/04 14:56:24;;;;;;;4.20;3.40;;;;;;;;;;109989;1260;33372;-36
2022/08/04 14:59:07;;;;;;;4.50;3.60;;;;;;;;;;109962;1254;33448;-35
2022/08/04 15:01:40;;;;;;;4.50;3.90;;;;;;;;;;109968;1254;35094;-36
2022/08/04 15:04:12;;;;;;;5.80;3.90;;;;;;;;;;109974;1260;33282;-35
2022/08/04 15:06:45;;;;;;;4.80;3.70;;;;;;;;;;110008;1260;34501;-39
2022/08/04 15:09:17;;;;;;;4.30;3.40;;;;;;;;;;109999;1260;35064;-39
2022/08/04 15:11:49;;;;;;;4.80;3.40;;;;;;;;;;110000;1260;33798;-35
2022/08/04 15:14:23;;;;;;;4.20;3.50;;;;;;;;;;109966;1260;35482;-38
2022/08/04 15:16:55;;;;;;;4.30;3.40;;;;;;;;;;109988;1260;33385;-39
2022/08/04 15:19:27;;;;;;;4.40;3.70;;;;;;;;;;109964;1260;35937;-37
2022/08/04 15:22:00;;;;;;;4.70;3.90;;;;;;;;;;109996;1259;37373;-35
2022/08/04 15:24:32;;;;;;;4.90;3.90;;;;;;;;;;110078;1259;34982;-33
2022/08/04 15:27:04;;;;;;;4.80;3.80;;;;;;;;;;109976;1253;35020;-35
2022/08/04 15:29:40;;;;;;;4.20;3.60;;;;;;;;;;109959;1260;34937;-34
2022/08/04 15:32:12;;;;;;;4.00;3.40;;;;;;;;;;110123;1259;34423;-36
2022/08/04 15:34:49;;;;;;;5.20;3.60;;;;;;;;;;110069;1259;35260;-35
2022/08/04 15:37:29;;;;;;;4.50;3.50;;;;;;;;;;110086;1253;35467;-36
2022/08/04 15:40:14;;;;;;;4.70;3.40;;;;;;;;;;110125;1253;34931;-36
2022/08/04 15:42:49;;;;;;;5.20;3.40;;;;;;;;;;110135;1253;35853;-36
2022/08/04 15:45:26;;;;;;;4.10;3.40;;;;;;;;;;110034;1259;36576;-36
2022/08/04 15:48:32;;;;;;;4.10;3.40;;;;;;;;;;110054;1259;35822;-33
2022/08/04 15:51:12;;;;;;;4.70;3.30;;;;;;;;;;110101;1259;34115;-36
2022/08/04 15:54:24;;;;;;;4.00;3.30;;;;;;;;;;110124;1256;34973;-35